sensor_id;sensor_type;location;lat;lon;timestamp;noise_LAeq;noise_LA_min;noise_LA_max;noise_LA01;noise_LA95
45246;Laerm;31529;51.158;7.354;2023-10-19T00:00:00;40.41;37.42;42.77;;
45246;Laerm;31529;51.158;7.354;2023-10-19T00:00:51;40.10;36.24;43.59;;
45246;Laerm;31529;51.158;7.354;2023-10-19T00:01:22;40.20;36.99;45.57;;
45246;Laerm;31529;51.158;7.354;2023-10-19T00:01:57;40.30;36.50;45.27;;
45246;Laerm;31529;51.158;7.354;2023-10-19T00:02:29;49.26;38.00;61.66;;
45246;Laerm;31529;51.158;7.354;2023-10-19T00:03:02;63.28;39.25;76.78;;
45246;Laerm;31529;51.158;7.354;2023-10-19T00:03:34;40.21;37.21;42.46;;
45246;Laerm;31529;51.158;7.354;2023-10-19T00:04:05;40.60;37.82;44.07;;
45246;Laerm;31529;51.158;7.354;2023-10-19T00:04:38;41.07;37.21;46.27;;
45246;Laerm;31529;51.158;7.354;2023-10-19T00:05:11;42.18;40.33;51.72;;
45246;Laerm;31529;51.158;7.354;2023-10-19T00:05:44;44.18;40.53;54.14;;
45246;Laerm;31529;51.158;7.354;2023-10-19T00:06:18;44.73;41.68;57.01;;
45246;Laerm;31529;51.158;7.354;2023-10-19T00:06:49;61.65;43.01;76.31;;
45246;Laerm;31529;51.158;7.354;2023-10-19T00:07:21;43.49;40.63;50.13;;
45246;Laerm;31529;51.158;7.354;2023-10-19T00:07:52;41.48;38.51;49.75;;
45246;Laerm;31529;51.158;7.354;2023-10-19T00:08:28;46.11;40.00;55.36;;
45246;Laerm;31529;51.158;7.354;2023-10-19T00:09:07;44.85;41.36;59.26;;
45246;Laerm;31529;51.158;7.354;2023-10-19T00:09:42;54.34;45.90;71.83;;
45246;Laerm;31529;51.158;7.354;2023-10-19T00:10:17;65.21;48.56;79.90;;
45246;Laerm;31529;51.158;7.354;2023-10-19T00:10:51;48.98;43.12;65.83;;
45246;Laerm;31529;51.158;7.354;2023-10-19T00:11:38;44.05;41.76;59.89;;
45246;Laerm;31529;51.158;7.354;2023-10-19T00:12:11;43.90;41.52;57.45;;
45246;Laerm;31529;51.158;7.354;2023-10-19T00:12:43;46.00;42.19;52.14;;
45246;Laerm;31529;51.158;7.354;2023-10-19T00:13:15;44.84;42.52;48.84;;
45246;Laerm;31529;51.158;7.354;2023-10-19T00:13:47;46.35;42.59;60.25;;
45246;Laerm;31529;51.158;7.354;2023-10-19T00:14:20;52.94;47.19;66.86;;
45246;Laerm;31529;51.158;7.354;2023-10-19T00:14:52;58.54;52.72;77.94;;
45246;Laerm;31529;51.158;7.354;2023-10-19T00:15:25;65.51;57.26;83.46;;
45246;Laerm;31529;51.158;7.354;2023-10-19T00:16:01;64.08;56.16;80.63;;
45246;Laerm;31529;51.158;7.354;2023-10-19T00:16:42;57.11;53.52;66.57;;
45246;Laerm;31529;51.158;7.354;2023-10-19T00:17:15;56.77;53.88;71.39;;
45246;Laerm;31529;51.158;7.354;2023-10-19T00:17:46;59.51;55.04;74.94;;
45246;Laerm;31529;51.158;7.354;2023-10-19T00:18:18;59.90;55.66;73.70;;
45246;Laerm;31529;51.158;7.354;2023-10-19T00:18:49;58.24;55.05;70.67;;
45246;Laerm;31529;51.158;7.354;2023-10-19T00:19:20;58.40;55.29;72.14;;
45246;Laerm;31529;51.158;7.354;2023-10-19T00:19:52;63.96;57.52;78.93;;
45246;Laerm;31529;51.158;7.354;2023-10-19T00:20:40;65.67;60.23;81.04;;
45246;Laerm;31529;51.158;7.354;2023-10-19T00:21:17;65.22;60.87;78.75;;
45246;Laerm;31529;51.158;7.354;2023-10-19T00:21:54;63.00;58.75;76.07;;
45246;Laerm;31529;51.158;7.354;2023-10-19T00:22:39;59.17;54.12;73.18;;
45246;Laerm;31529;51.158;7.354;2023-10-19T00:23:11;54.40;50.59;69.36;;
45246;Laerm;31529;51.158;7.354;2023-10-19T00:23:45;53.29;50.62;57.81;;
45246;Laerm;31529;51.158;7.354;2023-10-19T00:24:18;52.76;50.22;56.11;;
45246;Laerm;31529;51.158;7.354;2023-10-19T00:24:53;53.13;48.25;57.72;;
45246;Laerm;31529;51.158;7.354;2023-10-19T00:25:24;49.03;46.89;51.36;;
45246;Laerm;31529;51.158;7.354;2023-10-19T00:26:00;50.29;47.14;55.24;;
45246;Laerm;31529;51.158;7.354;2023-10-19T00:26:38;60.06;46.63;72.20;;
45246;Laerm;31529;51.158;7.354;2023-10-19T00:27:11;50.01;47.03;54.51;;
45246;Laerm;31529;51.158;7.354;2023-10-19T00:27:50;48.47;46.05;55.34;;
45246;Laerm;31529;51.158;7.354;2023-10-19T00:28:21;48.27;46.10;62.39;;
45246;Laerm;31529;51.158;7.354;2023-10-19T00:28:53;50.71;46.29;65.49;;
45246;Laerm;31529;51.158;7.354;2023-10-19T00:29:26;51.57;48.48;60.49;;
45246;Laerm;31529;51.158;7.354;2023-10-19T00:30:04;48.52;46.13;59.76;;
45246;Laerm;31529;51.158;7.354;2023-10-19T00:30:39;51.12;47.06;62.53;;
45246;Laerm;31529;51.158;7.354;2023-10-19T00:31:13;50.31;47.36;57.26;;
45246;Laerm;31529;51.158;7.354;2023-10-19T00:31:44;48.73;46.13;52.86;;
45246;Laerm;31529;51.158;7.354;2023-10-19T00:32:16;48.16;45.75;62.93;;
45246;Laerm;31529;51.158;7.354;2023-10-19T00:32:49;47.44;44.95;54.05;;
45246;Laerm;31529;51.158;7.354;2023-10-19T00:33:21;47.20;44.81;51.59;;
45246;Laerm;31529;51.158;7.354;2023-10-19T00:33:52;49.89;45.53;60.57;;
45246;Laerm;31529;51.158;7.354;2023-10-19T00:34:28;46.10;43.59;51.60;;
45246;Laerm;31529;51.158;7.354;2023-10-19T00:35:01;45.97;43.59;48.82;;
45246;Laerm;31529;51.158;7.354;2023-10-19T00:35:38;46.77;43.93;52.14;;
45246;Laerm;31529;51.158;7.354;2023-10-19T00:36:27;46.24;43.34;51.80;;
45246;Laerm;31529;51.158;7.354;2023-10-19T00:37:01;45.50;43.44;53.24;;
45246;Laerm;31529;51.158;7.354;2023-10-19T00:37:38;45.16;43.23;51.94;;
45246;Laerm;31529;51.158;7.354;2023-10-19T00:38:13;46.70;44.02;51.53;;
45246;Laerm;31529;51.158;7.354;2023-10-19T00:39:03;50.38;45.27;65.34;;
45246;Laerm;31529;51.158;7.354;2023-10-19T00:39:44;53.02;48.78;66.25;;
45246;Laerm;31529;51.158;7.354;2023-10-19T00:40:21;49.54;46.85;63.66;;
45246;Laerm;31529;51.158;7.354;2023-10-19T00:41:06;49.61;47.03;58.47;;
45246;Laerm;31529;51.158;7.354;2023-10-19T00:41:42;47.90;45.50;51.36;;
45246;Laerm;31529;51.158;7.354;2023-10-19T00:42:16;47.57;45.37;50.82;;
45246;Laerm;31529;51.158;7.354;2023-10-19T00:42:51;53.14;45.84;66.86;;
45246;Laerm;31529;51.158;7.354;2023-10-19T00:43:33;62.29;45.66;76.62;;
45246;Laerm;31529;51.158;7.354;2023-10-19T00:44:07;48.57;45.34;53.04;;
45246;Laerm;31529;51.158;7.354;2023-10-19T00:44:41;47.07;43.69;58.39;;
45246;Laerm;31529;51.158;7.354;2023-10-19T00:45:13;45.04;43.06;48.96;;
45246;Laerm;31529;51.158;7.354;2023-10-19T00:45:44;47.08;43.54;60.89;;
45246;Laerm;31529;51.158;7.354;2023-10-19T00:46:19;48.33;43.12;59.11;;
45246;Laerm;31529;51.158;7.354;2023-10-19T00:46:50;45.10;42.65;50.27;;
45246;Laerm;31529;51.158;7.354;2023-10-19T00:47:33;45.06;42.65;49.92;;
45246;Laerm;31529;51.158;7.354;2023-10-19T00:48:10;48.13;44.95;52.03;;
45246;Laerm;31529;51.158;7.354;2023-10-19T00:48:45;48.33;46.16;51.65;;
45246;Laerm;31529;51.158;7.354;2023-10-19T00:49:16;45.97;43.59;55.48;;
45246;Laerm;31529;51.158;7.354;2023-10-19T00:49:48;44.53;42.59;48.04;;
45246;Laerm;31529;51.158;7.354;2023-10-19T00:50:19;47.76;43.59;58.65;;
45246;Laerm;31529;51.158;7.354;2023-10-19T00:50:54;63.66;47.23;75.19;;
45246;Laerm;31529;51.158;7.354;2023-10-19T00:51:39;46.81;42.33;61.50;;
45246;Laerm;31529;51.158;7.354;2023-10-19T00:52:11;45.31;43.01;49.33;;
45246;Laerm;31529;51.158;7.354;2023-10-19T00:52:42;44.64;42.19;48.90;;
45246;Laerm;31529;51.158;7.354;2023-10-19T00:53:20;43.82;41.68;48.07;;
45246;Laerm;31529;51.158;7.354;2023-10-19T00:53:53;53.03;43.54;68.60;;
45246;Laerm;31529;51.158;7.354;2023-10-19T00:54:32;47.31;40.43;61.06;;
45246;Laerm;31529;51.158;7.354;2023-10-19T00:55:08;52.88;40.00;68.01;;
45246;Laerm;31529;51.158;7.354;2023-10-19T00:55:39;51.82;39.88;63.91;;
45246;Laerm;31529;51.158;7.354;2023-10-19T00:56:10;59.67;40.92;73.94;;
45246;Laerm;31529;51.158;7.354;2023-10-19T00:56:47;64.37;41.28;79.42;;
45246;Laerm;31529;51.158;7.354;2023-10-19T00:57:26;47.01;39.76;59.57;;
45246;Laerm;31529;51.158;7.354;2023-10-19T00:58:05;47.84;40.00;62.49;;
45246;Laerm;31529;51.158;7.354;2023-10-19T00:58:40;49.77;39.98;65.72;;
45246;Laerm;31529;51.158;7.354;2023-10-19T00:59:12;52.09;39.51;63.65;;
45246;Laerm;31529;51.158;7.354;2023-10-19T00:59:45;48.78;39.25;64.26;;
45246;Laerm;31529;51.158;7.354;2023-10-19T01:00:23;41.75;39.25;49.07;;
45246;Laerm;31529;51.158;7.354;2023-10-19T01:01:02;42.03;38.67;54.32;;
45246;Laerm;31529;51.158;7.354;2023-10-19T01:01:38;62.22;40.22;77.30;;
45246;Laerm;31529;51.158;7.354;2023-10-19T01:02:14;59.00;41.60;72.36;;
45246;Laerm;31529;51.158;7.354;2023-10-19T01:03:12;46.08;38.82;60.93;;
45246;Laerm;31529;51.158;7.354;2023-10-19T01:03:48;42.99;40.53;47.68;;
45246;Laerm;31529;51.158;7.354;2023-10-19T01:04:23;44.44;40.83;48.75;;
45246;Laerm;31529;51.158;7.354;2023-10-19T01:04:56;44.87;40.08;57.95;;
45246;Laerm;31529;51.158;7.354;2023-10-19T01:05:32;48.91;39.64;63.53;;
45246;Laerm;31529;51.158;7.354;2023-10-19T01:06:06;42.32;39.11;49.00;;
45246;Laerm;31529;51.158;7.354;2023-10-19T01:06:43;43.47;39.11;57.96;;
45246;Laerm;31529;51.158;7.354;2023-10-19T01:07:14;43.10;38.35;48.11;;
45246;Laerm;31529;51.158;7.354;2023-10-19T01:07:58;42.99;40.00;48.02;;
45246;Laerm;31529;51.158;7.354;2023-10-19T01:08:33;42.36;39.64;46.48;;
45246;Laerm;31529;51.158;7.354;2023-10-19T01:09:12;52.05;38.18;69.88;;
45246;Laerm;31529;51.158;7.354;2023-10-19T01:09:46;41.30;38.00;49.62;;
45246;Laerm;31529;51.158;7.354;2023-10-19T01:10:17;42.62;37.42;57.62;;
45246;Laerm;31529;51.158;7.354;2023-10-19T01:10:52;42.14;36.99;53.40;;
45246;Laerm;31529;51.158;7.354;2023-10-19T01:11:25;46.45;37.21;61.72;;
45246;Laerm;31529;51.158;7.354;2023-10-19T01:11:59;47.99;36.75;62.80;;
45246;Laerm;31529;51.158;7.354;2023-10-19T01:12:33;49.05;38.00;63.80;;
45246;Laerm;31529;51.158;7.354;2023-10-19T01:13:09;53.73;37.47;69.04;;
45246;Laerm;31529;51.158;7.354;2023-10-19T01:13:41;41.86;36.75;53.62;;
45246;Laerm;31529;51.158;7.354;2023-10-19T01:14:22;43.06;37.42;55.95;;
45246;Laerm;31529;51.158;7.354;2023-10-19T01:15:21;42.26;37.62;49.64;;
45246;Laerm;31529;51.158;7.354;2023-10-19T01:15:58;41.25;36.75;45.53;;
45246;Laerm;31529;51.158;7.354;2023-10-19T01:16:29;41.48;37.82;44.92;;
45246;Laerm;31529;51.158;7.354;2023-10-19T01:17:02;41.26;38.67;45.89;;
45246;Laerm;31529;51.158;7.354;2023-10-19T01:17:35;41.62;38.67;45.47;;
45246;Laerm;31529;51.158;7.354;2023-10-19T01:18:10;49.99;38.18;65.16;;
45246;Laerm;31529;51.158;7.354;2023-10-19T01:18:45;45.57;36.99;60.07;;
45246;Laerm;31529;51.158;7.354;2023-10-19T01:19:17;41.41;38.35;46.29;;
45246;Laerm;31529;51.158;7.354;2023-10-19T01:19:49;43.25;40.63;52.21;;
45246;Laerm;31529;51.158;7.354;2023-10-19T01:20:22;43.32;41.10;46.89;;
45246;Laerm;31529;51.158;7.354;2023-10-19T01:20:59;42.94;39.88;45.96;;
45246;Laerm;31529;51.158;7.354;2023-10-19T01:21:35;63.45;43.69;75.98;;
45246;Laerm;31529;51.158;7.354;2023-10-19T01:22:08;43.96;37.21;56.42;;
45246;Laerm;31529;51.158;7.354;2023-10-19T01:22:52;47.51;37.62;65.17;;
45246;Laerm;31529;51.158;7.354;2023-10-19T01:23:24;43.18;38.97;47.36;;
45246;Laerm;31529;51.158;7.354;2023-10-19T01:23:58;41.14;38.00;45.96;;
45246;Laerm;31529;51.158;7.354;2023-10-19T01:24:29;43.15;37.21;60.13;;
45246;Laerm;31529;51.158;7.354;2023-10-19T01:25:11;43.72;36.50;57.71;;
45246;Laerm;31529;51.158;7.354;2023-10-19T01:26:25;42.22;39.38;51.90;;
45246;Laerm;31529;51.158;7.354;2023-10-19T01:26:58;42.70;39.38;47.89;;
45246;Laerm;31529;51.158;7.354;2023-10-19T01:27:31;43.17;41.01;46.35;;
45246;Laerm;31529;51.158;7.354;2023-10-19T01:28:07;44.15;39.88;49.08;;
45246;Laerm;31529;51.158;7.354;2023-10-19T01:28:39;46.88;42.33;51.26;;
45246;Laerm;31529;51.158;7.354;2023-10-19T01:29:19;44.52;40.11;50.63;;
45246;Laerm;31529;51.158;7.354;2023-10-19T01:29:57;41.26;38.35;44.07;;
45246;Laerm;31529;51.158;7.354;2023-10-19T01:30:32;51.51;37.62;67.39;;
45246;Laerm;31529;51.158;7.354;2023-10-19T01:31:04;62.58;40.22;76.21;;
45246;Laerm;31529;51.158;7.354;2023-10-19T01:31:37;46.51;37.82;59.99;;
45246;Laerm;31529;51.158;7.354;2023-10-19T01:32:23;42.34;36.75;52.90;;
45246;Laerm;31529;51.158;7.354;2023-10-19T01:32:54;57.60;38.51;72.51;;
45246;Laerm;31529;51.158;7.354;2023-10-19T01:33:25;52.33;37.82;65.09;;
45246;Laerm;31529;51.158;7.354;2023-10-19T01:34:00;44.96;38.18;58.53;;
45246;Laerm;31529;51.158;7.354;2023-10-19T01:34:40;41.63;38.97;45.78;;
45246;Laerm;31529;51.158;7.354;2023-10-19T01:35:11;64.08;40.73;78.12;;
45246;Laerm;31529;51.158;7.354;2023-10-19T01:35:42;56.40;38.51;72.13;;
45246;Laerm;31529;51.158;7.354;2023-10-19T01:36:32;52.88;38.51;69.29;;
45246;Laerm;31529;51.158;7.354;2023-10-19T01:37:13;44.68;35.96;61.95;;
45246;Laerm;31529;51.158;7.354;2023-10-19T01:37:44;40.16;35.34;46.19;;
45246;Laerm;31529;51.158;7.354;2023-10-19T01:38:15;43.01;37.42;57.64;;
45246;Laerm;31529;51.158;7.354;2023-10-19T01:38:46;70.14;41.28;85.75;;
45246;Laerm;31529;51.158;7.354;2023-10-19T01:39:18;71.91;49.29;86.50;;
45246;Laerm;31529;51.158;7.354;2023-10-19T01:39:49;48.03;40.53;60.57;;
45246;Laerm;31529;51.158;7.354;2023-10-19T01:40:21;51.32;37.62;65.63;;
45246;Laerm;31529;51.158;7.354;2023-10-19T01:40:52;64.48;41.76;78.96;;
45246;Laerm;31529;51.158;7.354;2023-10-19T01:41:26;42.15;38.35;47.30;;
45246;Laerm;31529;51.158;7.354;2023-10-19T01:41:58;65.61;39.76;81.09;;
45246;Laerm;31529;51.158;7.354;2023-10-19T01:42:29;45.02;39.64;52.63;;
45246;Laerm;31529;51.158;7.354;2023-10-19T01:43:01;53.26;36.24;68.23;;
45246;Laerm;31529;51.158;7.354;2023-10-19T01:43:33;45.72;38.67;61.38;;
45246;Laerm;31529;51.158;7.354;2023-10-19T01:44:04;46.46;38.00;59.43;;
45246;Laerm;31529;51.158;7.354;2023-10-19T01:44:37;52.76;35.96;66.28;;
45246;Laerm;31529;51.158;7.354;2023-10-19T01:45:08;47.35;37.42;59.68;;
45246;Laerm;31529;51.158;7.354;2023-10-19T01:45:42;42.12;35.96;53.53;;
45246;Laerm;31529;51.158;7.354;2023-10-19T01:46:15;41.91;36.99;49.48;;
45246;Laerm;31529;51.158;7.354;2023-10-19T01:46:53;62.75;40.53;76.37;;
45246;Laerm;31529;51.158;7.354;2023-10-19T01:47:24;41.69;38.51;47.03;;
45246;Laerm;31529;51.158;7.354;2023-10-19T01:47:55;41.65;38.17;50.30;;
45246;Laerm;31529;51.158;7.354;2023-10-19T01:48:26;42.74;37.82;48.30;;
45246;Laerm;31529;51.158;7.354;2023-10-19T01:49:06;43.60;37.21;55.68;;
45246;Laerm;31529;51.158;7.354;2023-10-19T01:49:39;43.41;39.38;55.52;;
45246;Laerm;31529;51.158;7.354;2023-10-19T01:50:10;41.19;37.21;48.81;;
45246;Laerm;31529;51.158;7.354;2023-10-19T01:50:50;41.35;38.00;47.70;;
45246;Laerm;31529;51.158;7.354;2023-10-19T01:51:26;45.99;37.21;62.08;;
45246;Laerm;31529;51.158;7.354;2023-10-19T01:51:57;44.75;36.24;58.39;;
45246;Laerm;31529;51.158;7.354;2023-10-19T01:52:28;42.35;38.18;52.94;;
45246;Laerm;31529;51.158;7.354;2023-10-19T01:52:59;47.81;35.61;64.22;;
45246;Laerm;31529;51.158;7.354;2023-10-19T01:53:32;41.45;37.21;54.30;;
45246;Laerm;31529;51.158;7.354;2023-10-19T01:54:06;51.15;35.96;65.93;;
45246;Laerm;31529;51.158;7.354;2023-10-19T01:54:38;49.30;34.99;61.97;;
45246;Laerm;31529;51.158;7.354;2023-10-19T01:55:09;39.04;34.20;45.60;;
45246;Laerm;31529;51.158;7.354;2023-10-19T01:55:44;43.52;35.34;58.60;;
45246;Laerm;31529;51.158;7.354;2023-10-19T01:56:16;60.03;36.99;74.45;;
45246;Laerm;31529;51.158;7.354;2023-10-19T01:56:49;48.00;37.62;57.08;;
45246;Laerm;31529;51.158;7.354;2023-10-19T01:57:21;42.22;38.00;54.76;;
45246;Laerm;31529;51.158;7.354;2023-10-19T01:57:52;44.64;36.50;58.00;;
45246;Laerm;31529;51.158;7.354;2023-10-19T01:58:26;40.12;34.61;45.17;;
45246;Laerm;31529;51.158;7.354;2023-10-19T01:58:57;39.20;35.34;43.18;;
45246;Laerm;31529;51.158;7.354;2023-10-19T01:59:29;39.11;35.34;43.88;;
45246;Laerm;31529;51.158;7.354;2023-10-19T02:00:01;39.19;34.61;43.23;;
45246;Laerm;31529;51.158;7.354;2023-10-19T02:00:42;47.87;37.82;66.21;;
45246;Laerm;31529;51.158;7.354;2023-10-19T02:01:16;60.59;38.00;74.82;;
45246;Laerm;31529;51.158;7.354;2023-10-19T02:01:56;53.49;36.64;64.27;;
45246;Laerm;31529;51.158;7.354;2023-10-19T02:02:28;65.01;38.35;77.33;;
45246;Laerm;31529;51.158;7.354;2023-10-19T02:02:59;43.35;36.99;57.53;;
45246;Laerm;31529;51.158;7.354;2023-10-19T02:03:31;42.36;37.21;46.37;;
45246;Laerm;31529;51.158;7.354;2023-10-19T02:04:04;40.60;37.21;43.88;;
45246;Laerm;31529;51.158;7.354;2023-10-19T02:04:36;40.19;36.75;42.95;;
45246;Laerm;31529;51.158;7.354;2023-10-19T02:05:11;41.66;35.34;48.38;;
45246;Laerm;31529;51.158;7.354;2023-10-19T02:05:46;41.90;39.38;44.88;;
45246;Laerm;31529;51.158;7.354;2023-10-19T02:06:21;41.29;34.99;48.87;;
45246;Laerm;31529;51.158;7.354;2023-10-19T02:06:52;43.07;37.21;55.60;;
45246;Laerm;31529;51.158;7.354;2023-10-19T02:07:24;42.64;36.50;57.93;;
45246;Laerm;31529;51.158;7.354;2023-10-19T02:07:55;45.51;36.99;59.24;;
45246;Laerm;31529;51.158;7.354;2023-10-19T02:08:26;45.11;36.24;58.42;;
45246;Laerm;31529;51.158;7.354;2023-10-19T02:09:40;49.13;36.75;61.71;;
45246;Laerm;31529;51.158;7.354;2023-10-19T02:10:11;47.00;37.42;59.29;;
45246;Laerm;31529;51.158;7.354;2023-10-19T02:10:48;45.72;39.64;61.77;;
45246;Laerm;31529;51.158;7.354;2023-10-19T02:11:21;41.56;36.99;46.24;;
45246;Laerm;31529;51.158;7.354;2023-10-19T02:11:54;42.69;36.75;58.43;;
45246;Laerm;31529;51.158;7.354;2023-10-19T02:12:28;66.54;37.21;81.51;;
45246;Laerm;31529;51.158;7.354;2023-10-19T02:13:00;56.73;39.64;71.30;;
45246;Laerm;31529;51.158;7.354;2023-10-19T02:13:31;43.56;38.18;53.36;;
45246;Laerm;31529;51.158;7.354;2023-10-19T02:14:02;40.56;35.34;48.00;;
45246;Laerm;31529;51.158;7.354;2023-10-19T02:14:35;66.38;37.82;81.39;;
45246;Laerm;31529;51.158;7.354;2023-10-19T02:15:08;43.13;36.24;50.55;;
45246;Laerm;31529;51.158;7.354;2023-10-19T02:15:40;40.71;38.00;43.59;;
45246;Laerm;31529;51.158;7.354;2023-10-19T02:16:13;41.05;37.83;44.29;;
45246;Laerm;31529;51.158;7.354;2023-10-19T02:16:48;41.27;36.75;45.96;;
45246;Laerm;31529;51.158;7.354;2023-10-19T02:17:23;63.75;41.91;75.68;;
45246;Laerm;31529;51.158;7.354;2023-10-19T02:17:54;65.91;42.95;79.50;;
45246;Laerm;31529;51.158;7.354;2023-10-19T02:18:26;54.71;39.88;66.51;;
45246;Laerm;31529;51.158;7.354;2023-10-19T02:18:57;47.15;38.00;59.94;;
45246;Laerm;31529;51.158;7.354;2023-10-19T02:19:29;47.08;37.82;60.49;;
45246;Laerm;31529;51.158;7.354;2023-10-19T02:20:00;43.25;38.00;55.11;;
45246;Laerm;31529;51.158;7.354;2023-10-19T02:20:31;46.52;39.11;61.92;;
45246;Laerm;31529;51.158;7.354;2023-10-19T02:21:04;46.24;36.99;61.65;;
45246;Laerm;31529;51.158;7.354;2023-10-19T02:21:38;49.64;37.82;64.16;;
45246;Laerm;31529;51.158;7.354;2023-10-19T02:22:12;46.99;35.66;62.27;;
45246;Laerm;31529;51.158;7.354;2023-10-19T02:22:43;40.92;37.21;48.32;;
45246;Laerm;31529;51.158;7.354;2023-10-19T02:23:14;68.17;38.18;82.81;;
45246;Laerm;31529;51.158;7.354;2023-10-19T02:23:45;45.48;39.76;52.59;;
45246;Laerm;31529;51.158;7.354;2023-10-19T02:24:17;40.39;37.62;42.95;;
45246;Laerm;31529;51.158;7.354;2023-10-19T02:24:48;40.10;37.21;42.66;;
45246;Laerm;31529;51.158;7.354;2023-10-19T02:25:19;61.64;38.35;75.17;;
45246;Laerm;31529;51.158;7.354;2023-10-19T02:25:51;42.38;38.97;49.08;;
45246;Laerm;31529;51.158;7.354;2023-10-19T02:26:22;42.47;37.82;56.28;;
45246;Laerm;31529;51.158;7.354;2023-10-19T02:26:55;44.07;38.18;55.12;;
45246;Laerm;31529;51.158;7.354;2023-10-19T02:27:27;68.90;46.85;82.47;;
45246;Laerm;31529;51.158;7.354;2023-10-19T02:27:58;44.38;39.04;55.13;;
45246;Laerm;31529;51.158;7.354;2023-10-19T02:28:30;41.17;37.21;49.85;;
45246;Laerm;31529;51.158;7.354;2023-10-19T02:29:07;44.30;37.62;56.94;;
45246;Laerm;31529;51.158;7.354;2023-10-19T02:29:40;42.01;39.64;45.75;;
45246;Laerm;31529;51.158;7.354;2023-10-19T02:30:13;41.79;38.82;44.29;;
45246;Laerm;31529;51.158;7.354;2023-10-19T02:30:44;66.90;38.97;80.05;;
45246;Laerm;31529;51.158;7.354;2023-10-19T02:31:15;73.93;51.52;87.45;;
45246;Laerm;31529;51.158;7.354;2023-10-19T02:31:47;49.71;40.11;57.13;;
45246;Laerm;31529;51.158;7.354;2023-10-19T02:32:19;43.83;38.18;58.37;;
45246;Laerm;31529;51.158;7.354;2023-10-19T02:32:50;40.92;36.75;46.82;;
45246;Laerm;31529;51.158;7.354;2023-10-19T02:33:21;63.52;39.25;78.43;;
45246;Laerm;31529;51.158;7.354;2023-10-19T02:33:54;47.41;41.36;60.40;;
45246;Laerm;31529;51.158;7.354;2023-10-19T02:34:34;43.33;39.38;54.91;;
45246;Laerm;31529;51.158;7.354;2023-10-19T02:35:06;42.35;39.11;48.48;;
45246;Laerm;31529;51.158;7.354;2023-10-19T02:35:38;68.44;45.47;81.46;;
45246;Laerm;31529;51.158;7.354;2023-10-19T02:36:09;43.81;38.67;50.13;;
45246;Laerm;31529;51.158;7.354;2023-10-19T02:36:44;41.44;36.75;44.53;;
45246;Laerm;31529;51.158;7.354;2023-10-19T02:37:15;40.89;34.99;51.45;;
45246;Laerm;31529;51.158;7.354;2023-10-19T02:37:47;61.95;37.21;77.51;;
45246;Laerm;31529;51.158;7.354;2023-10-19T02:38:18;58.63;39.38;74.99;;
45246;Laerm;31529;51.158;7.354;2023-10-19T02:38:49;45.60;39.51;54.74;;
45246;Laerm;31529;51.158;7.354;2023-10-19T02:39:23;63.03;38.35;74.10;;
45246;Laerm;31529;51.158;7.354;2023-10-19T02:40:01;64.96;38.82;78.88;;
45246;Laerm;31529;51.158;7.354;2023-10-19T02:40:34;45.67;37.21;56.63;;
45246;Laerm;31529;51.158;7.354;2023-10-19T02:41:08;60.22;39.51;73.93;;
45246;Laerm;31529;51.158;7.354;2023-10-19T02:41:45;70.01;43.23;83.55;;
45246;Laerm;31529;51.158;7.354;2023-10-19T02:42:19;41.24;37.21;44.27;;
45246;Laerm;31529;51.158;7.354;2023-10-19T02:42:53;42.19;37.21;46.19;;
45246;Laerm;31529;51.158;7.354;2023-10-19T02:43:24;59.99;38.97;75.20;;
45246;Laerm;31529;51.158;7.354;2023-10-19T02:43:56;44.17;38.00;52.09;;
45246;Laerm;31529;51.158;7.354;2023-10-19T02:44:53;68.38;39.64;82.41;;
45246;Laerm;31529;51.158;7.354;2023-10-19T02:45:24;66.48;43.54;78.69;;
45246;Laerm;31529;51.158;7.354;2023-10-19T02:45:55;63.40;39.38;77.26;;
45246;Laerm;31529;51.158;7.354;2023-10-19T02:46:30;65.85;38.17;81.46;;
45246;Laerm;31529;51.158;7.354;2023-10-19T02:47:04;57.65;38.97;73.33;;
45246;Laerm;31529;51.158;7.354;2023-10-19T02:47:40;43.20;39.64;46.24;;
45246;Laerm;31529;51.158;7.354;2023-10-19T02:48:13;61.98;41.91;76.08;;
45246;Laerm;31529;51.158;7.354;2023-10-19T02:48:44;64.69;41.01;78.16;;
45246;Laerm;31529;51.158;7.354;2023-10-19T02:49:15;64.29;41.28;78.21;;
45246;Laerm;31529;51.158;7.354;2023-10-19T02:49:50;43.80;38.00;54.14;;
45246;Laerm;31529;51.158;7.354;2023-10-19T02:50:26;66.46;44.16;77.10;;
45246;Laerm;31529;51.158;7.354;2023-10-19T02:50:57;48.49;38.67;59.53;;
45246;Laerm;31529;51.158;7.354;2023-10-19T02:51:37;40.84;37.21;43.54;;
45246;Laerm;31529;51.158;7.354;2023-10-19T02:52:09;43.31;40.43;51.36;;
45246;Laerm;31529;51.158;7.354;2023-10-19T02:52:41;42.60;39.51;53.45;;
45246;Laerm;31529;51.158;7.354;2023-10-19T02:53:13;40.99;37.82;43.64;;
45246;Laerm;31529;51.158;7.354;2023-10-19T02:53:44;42.12;38.17;47.58;;
45246;Laerm;31529;51.158;7.354;2023-10-19T02:54:21;62.24;40.43;76.67;;
45246;Laerm;31529;51.158;7.354;2023-10-19T02:54:53;64.83;40.11;76.48;;
45246;Laerm;31529;51.158;7.354;2023-10-19T02:55:27;46.48;34.99;56.50;;
45246;Laerm;31529;51.158;7.354;2023-10-19T02:55:58;64.85;37.82;79.62;;
45246;Laerm;31529;51.158;7.354;2023-10-19T02:56:33;70.51;48.61;82.88;;
45246;Laerm;31529;51.158;7.354;2023-10-19T02:57:06;69.41;49.34;80.04;;
45246;Laerm;31529;51.158;7.354;2023-10-19T02:57:37;69.04;47.74;82.51;;
45246;Laerm;31529;51.158;7.354;2023-10-19T02:58:08;62.33;43.88;75.00;;
45246;Laerm;31529;51.158;7.354;2023-10-19T02:58:41;74.18;49.58;86.71;;
45246;Laerm;31529;51.158;7.354;2023-10-19T02:59:13;67.18;39.88;79.60;;
45246;Laerm;31529;51.158;7.354;2023-10-19T02:59:46;66.18;39.25;81.85;;
45246;Laerm;31529;51.158;7.354;2023-10-19T03:00:17;68.05;44.07;82.27;;
45246;Laerm;31529;51.158;7.354;2023-10-19T03:00:51;65.72;46.92;76.82;;
45246;Laerm;31529;51.158;7.354;2023-10-19T03:01:22;64.80;44.07;78.19;;
45246;Laerm;31529;51.158;7.354;2023-10-19T03:01:58;42.97;39.76;47.36;;
45246;Laerm;31529;51.158;7.354;2023-10-19T03:02:32;67.76;44.92;80.46;;
45246;Laerm;31529;51.158;7.354;2023-10-19T03:03:03;68.98;45.13;79.89;;
45246;Laerm;31529;51.158;7.354;2023-10-19T03:03:36;43.61;39.51;51.59;;
45246;Laerm;31529;51.158;7.354;2023-10-19T03:04:07;42.85;38.35;54.88;;
45246;Laerm;31529;51.158;7.354;2023-10-19T03:04:38;47.07;38.51;62.03;;
45246;Laerm;31529;51.158;7.354;2023-10-19T03:05:10;65.84;39.64;79.33;;
45246;Laerm;31529;51.158;7.354;2023-10-19T03:05:48;64.39;40.63;78.27;;
45246;Laerm;31529;51.158;7.354;2023-10-19T03:06:21;41.82;37.83;45.87;;
45246;Laerm;31529;51.158;7.354;2023-10-19T03:06:52;41.51;37.82;44.02;;
45246;Laerm;31529;51.158;7.354;2023-10-19T03:07:23;48.33;40.92;55.73;;
45246;Laerm;31529;51.158;7.354;2023-10-19T03:07:54;71.25;46.94;83.58;;
45246;Laerm;31529;51.158;7.354;2023-10-19T03:08:26;68.39;43.44;79.76;;
45246;Laerm;31529;51.158;7.354;2023-10-19T03:08:57;46.02;38.18;57.27;;
45246;Laerm;31529;51.158;7.354;2023-10-19T03:09:28;68.44;40.43;81.20;;
45246;Laerm;31529;51.158;7.354;2023-10-19T03:10:01;45.77;40.43;55.00;;
45246;Laerm;31529;51.158;7.354;2023-10-19T03:10:33;68.19;49.81;79.18;;
45246;Laerm;31529;51.158;7.354;2023-10-19T03:11:14;67.86;44.68;83.33;;
45246;Laerm;31529;51.158;7.354;2023-10-19T03:11:45;64.51;41.44;79.56;;
45246;Laerm;31529;51.158;7.354;2023-10-19T03:12:16;43.00;37.82;56.05;;